createdAt,value
2023-06-27T00:04:57.719Z,2.00
2023-06-27T00:09:59.551Z,1.50
2023-06-27T00:15:01.454Z,2.05
2023-06-27T00:20:03.911Z,1.98
2023-06-27T00:25:05.854Z,2.33
2023-06-27T00:30:08.171Z,1.38
2023-06-27T00:35:09.925Z,1.70
2023-06-27T00:40:11.820Z,1.50
2023-06-27T00:45:13.417Z,2.67
2023-06-27T00:50:14.953Z,1.40
2023-06-27T00:55:16.460Z,1.85
2023-06-27T01:00:18.706Z,1.73
2023-06-27T01:05:20.477Z,1.58
2023-06-27T01:10:29.970Z,1.38
2023-06-27T01:15:31.480Z,1.50
2023-06-27T01:20:33.951Z,1.38
2023-06-27T01:25:39.101Z,1.45
2023-06-27T01:30:41.982Z,1.10
2023-06-27T01:35:56.633Z,1.48
2023-06-27T01:41:00.113Z,1.27
2023-06-27T01:46:01.679Z,1.55
2023-06-27T01:51:09.628Z,2.30
2023-06-27T01:56:11.149Z,1.83
2023-06-27T02:01:12.707Z,1.70
2023-06-27T02:06:16.364Z,1.98
2023-06-27T02:11:17.881Z,1.27
2023-06-27T02:16:19.379Z,0.85
2023-06-27T02:21:20.875Z,1.35
2023-06-27T02:26:22.380Z,1.60
2023-06-27T02:31:24.056Z,1.30
2023-06-27T02:36:28.457Z,1.30
2023-06-27T02:41:29.997Z,1.60
2023-06-27T02:46:31.596Z,1.20
2023-06-27T02:51:33.180Z,1.33
2023-06-27T02:56:34.684Z,1.05
2023-06-27T03:01:36.230Z,1.70
2023-06-27T03:06:37.771Z,1.20
2023-06-27T03:11:39.276Z,1.38
2023-06-27T03:16:41.052Z,1.10
2023-06-27T03:21:42.724Z,1.77
2023-06-27T03:26:44.514Z,2.13
2023-06-27T03:31:46.118Z,1.50
2023-06-27T03:36:47.672Z,2.08
2023-06-27T03:41:49.182Z,1.70
2023-06-27T03:46:50.895Z,1.92
2023-06-27T03:51:52.400Z,1.60
2023-06-27T03:56:53.908Z,1.48
2023-06-27T04:01:55.423Z,1.40
2023-06-27T04:06:56.961Z,2.22
2023-06-27T04:12:00.646Z,1.30
2023-06-27T04:17:02.227Z,1.63
2023-06-27T04:22:04.119Z,2.00
2023-06-27T04:27:05.705Z,2.20
2023-06-27T04:32:08.563Z,1.08
2023-06-27T04:37:10.068Z,1.30
2023-06-27T04:42:11.612Z,1.50
2023-06-27T04:47:13.133Z,1.98
2023-06-27T04:52:14.631Z,2.08
2023-06-27T04:57:18.509Z,1.38
2023-06-27T05:02:21.268Z,1.40
2023-06-27T05:07:22.833Z,1.55
2023-06-27T05:12:24.363Z,1.58
2023-06-27T05:17:25.918Z,1.52
2023-06-27T05:22:27.580Z,1.10
2023-06-27T05:27:29.106Z,1.48
2023-06-27T05:32:30.677Z,1.40
2023-06-27T05:37:32.201Z,1.20
2023-06-27T05:42:34.028Z,1.60
2023-06-27T05:47:35.555Z,1.38
2023-06-27T05:52:37.147Z,1.48
2023-06-27T05:57:38.675Z,1.02
2023-06-27T06:02:42.585Z,1.40
2023-06-27T06:07:44.988Z,1.30
2023-06-27T06:12:46.535Z,1.80
2023-06-27T06:17:48.137Z,1.17
2023-06-27T06:22:49.698Z,1.60
2023-06-27T06:27:51.230Z,1.50
2023-06-27T06:32:52.766Z,1.63
2023-06-27T06:37:54.853Z,1.90
2023-06-27T06:47:57.858Z,1.40
2023-06-27T06:52:59.428Z,1.40
2023-06-27T06:58:00.943Z,1.33
2023-06-27T07:03:03.269Z,1.52
2023-06-27T07:08:05.199Z,1.95
2023-06-27T07:13:06.849Z,1.65
2023-06-27T07:18:08.390Z,1.83
2023-06-27T07:23:09.906Z,1.48
2023-06-27T07:28:11.436Z,1.73
2023-06-27T07:33:13.681Z,1.58
2023-06-27T07:38:17.623Z,1.20
2023-06-27T07:43:19.163Z,1.42
2023-06-27T07:48:20.729Z,1.60
2023-06-27T07:53:22.240Z,1.38
2023-06-27T07:58:23.795Z,1.75
2023-06-27T08:03:25.990Z,1.30
2023-06-27T08:08:27.635Z,1.48
2023-06-27T08:13:29.183Z,1.40
2023-06-27T08:18:30.853Z,1.40
2023-06-27T08:23:32.475Z,1.20
2023-06-27T08:28:34.131Z,1.35
2023-06-27T08:33:35.666Z,1.80
2023-06-27T08:38:37.285Z,1.75
2023-06-27T08:43:40.212Z,1.38
2023-06-27T08:48:42.996Z,2.25
2023-06-27T08:53:45.500Z,1.88
2023-06-27T08:58:57.107Z,1.30
2023-06-27T09:03:59.655Z,1.38
2023-06-27T09:09:01.301Z,1.70
2023-06-27T09:14:03.175Z,1.10
2023-06-27T09:29:08.402Z,1.85
2023-06-27T09:34:10.710Z,1.55
2023-06-27T09:39:14.048Z,1.63
2023-06-27T09:44:17.104Z,2.67
2023-06-27T09:49:19.256Z,2.28
2023-06-27T09:54:24.108Z,2.53
2023-06-27T09:59:27.435Z,1.50
2023-06-27T10:09:35.468Z,1.60
2023-06-27T10:14:37.122Z,1.85
2023-06-27T10:19:38.666Z,2.03
2023-06-27T10:24:41.837Z,1.88
2023-06-27T10:29:47.267Z,1.63
2023-06-27T10:34:48.849Z,2.03
2023-06-27T10:40:01.473Z,1.92
2023-06-27T10:45:10.299Z,1.70
2023-06-27T10:50:15.899Z,2.13
2023-06-27T10:55:19.489Z,1.90
2023-06-27T11:00:33.258Z,1.90
2023-06-27T11:05:48.449Z,1.52
2023-06-27T11:11:08.944Z,1.38
2023-06-27T11:16:12.486Z,1.88
2023-06-27T11:21:15.793Z,1.40
2023-06-27T11:26:23.911Z,1.80
2023-06-27T11:31:25.448Z,2.20
2023-06-27T11:36:27.238Z,2.15
2023-06-27T11:41:30.797Z,2.85
2023-06-27T11:46:32.340Z,1.98
2023-06-27T11:51:40.373Z,2.60
2023-06-27T11:56:41.888Z,2.15
2023-06-27T12:01:44.363Z,2.00
2023-06-27T12:06:47.753Z,2.42
2023-06-27T12:11:53.186Z,1.98
2023-06-27T12:17:01.370Z,3.22
2023-06-27T12:32:08.688Z,1.83
2023-06-27T12:37:13.023Z,1.95
2023-06-27T12:42:14.531Z,1.80
2023-06-27T12:52:17.424Z,2.47
2023-06-27T12:57:20.150Z,2.03
2023-06-27T13:02:22.223Z,2.25
2023-06-27T13:07:23.902Z,2.33
2023-06-27T13:12:25.433Z,2.63
2023-06-27T13:17:27.023Z,2.60
2023-06-27T13:22:28.563Z,2.45
2023-06-27T13:27:30.239Z,2.30
2023-06-27T13:37:34.398Z,3.00
2023-06-27T13:42:37.501Z,2.10
2023-06-27T13:52:40.640Z,2.22
2023-06-27T13:57:42.141Z,2.40
2023-06-27T14:02:43.725Z,2.45
2023-06-27T14:12:46.727Z,2.15
2023-06-27T14:17:48.782Z,2.65
2023-06-27T14:22:51.259Z,2.60
2023-06-27T14:27:53.111Z,2.25
2023-06-27T14:32:54.821Z,2.25
2023-06-27T14:37:56.541Z,2.03
2023-06-27T14:47:59.829Z,2.50
2023-06-27T14:58:02.815Z,2.97
2023-06-27T15:03:04.431Z,2.00
2023-06-27T15:08:06.079Z,2.65
2023-06-27T15:13:07.632Z,2.10
2023-06-27T15:18:09.172Z,2.75
2023-06-27T15:28:12.898Z,2.25
2023-06-27T15:38:16.219Z,3.65
2023-06-27T15:43:17.828Z,2.17
2023-06-27T15:48:19.359Z,2.22
2023-06-27T15:53:20.883Z,2.67
2023-06-27T15:58:22.388Z,1.95
2023-06-27T16:03:24.094Z,2.85
2023-06-27T16:08:25.757Z,2.33
2023-06-27T16:13:27.261Z,2.63
2023-06-27T16:18:28.783Z,3.08
2023-06-27T16:23:30.309Z,2.95
2023-06-27T16:28:31.810Z,3.03
2023-06-27T16:33:33.361Z,2.55
2023-06-27T16:38:34.882Z,2.67
2023-06-27T16:43:36.444Z,2.22
2023-06-27T16:48:37.950Z,1.63
2023-06-27T16:53:39.554Z,1.85
2023-06-27T16:58:41.082Z,1.10
2023-06-27T17:03:42.790Z,1.67
2023-06-27T17:08:44.607Z,1.25
2023-06-27T17:13:49.023Z,1.33
2023-06-27T17:18:50.959Z,1.27
2023-06-27T17:23:53.090Z,1.40
2023-06-27T17:28:54.606Z,1.55
2023-06-27T17:33:56.119Z,1.00
2023-06-27T17:38:58.885Z,1.67
2023-06-27T17:44:00.384Z,1.20
2023-06-27T17:49:01.905Z,1.55
2023-06-27T17:54:03.417Z,1.33
2023-06-27T17:59:04.919Z,1.00
2023-06-27T18:04:06.446Z,1.10
2023-06-27T18:09:07.977Z,1.20
2023-06-27T18:14:09.543Z,1.20
2023-06-27T18:19:11.088Z,1.20
2023-06-27T18:24:12.631Z,2.03
2023-06-27T18:29:14.204Z,1.10
2023-06-27T18:34:16.165Z,1.42
2023-06-27T18:39:17.841Z,1.83
2023-06-27T18:44:19.390Z,1.35
2023-06-27T18:49:20.897Z,1.27
2023-06-27T18:54:22.406Z,1.40
2023-06-27T18:59:23.915Z,1.42
2023-06-27T19:04:26.694Z,1.23
2023-06-27T19:09:29.285Z,1.38
2023-06-27T19:14:30.814Z,1.35
2023-06-27T19:19:32.327Z,1.30
2023-06-27T19:24:34.365Z,1.20
2023-06-27T19:29:35.878Z,1.50
2023-06-27T19:34:37.390Z,1.52
2023-06-27T19:39:38.930Z,1.27
2023-06-27T19:44:40.440Z,1.15
2023-06-27T19:49:42.136Z,1.70
2023-06-27T19:54:43.678Z,1.50
2023-06-27T19:59:45.222Z,1.60
2023-06-27T20:04:46.815Z,1.40
2023-06-27T20:09:48.381Z,1.40
2023-06-27T20:14:49.916Z,1.27
2023-06-27T20:19:51.432Z,1.67
2023-06-27T20:24:53.031Z,1.30
2023-06-27T20:29:54.563Z,1.30
2023-06-27T20:34:56.070Z,1.20
2023-06-27T20:39:58.552Z,1.67
2023-06-27T20:45:00.066Z,1.25
2023-06-27T20:50:01.610Z,1.10
2023-06-27T20:55:03.154Z,1.95
2023-06-27T21:00:05.084Z,1.27
2023-06-27T21:05:07.063Z,1.23
2023-06-27T21:10:08.895Z,1.75
2023-06-27T21:15:10.460Z,1.80
2023-06-27T21:20:12.254Z,1.95
2023-06-27T21:25:14.451Z,2.10
2023-06-27T21:30:15.962Z,2.08
2023-06-27T21:35:17.484Z,2.13
2023-06-27T21:40:19.021Z,2.25
2023-06-27T21:45:20.560Z,2.42
2023-06-27T21:50:22.949Z,2.53
2023-06-27T21:55:24.469Z,2.45
2023-06-27T22:00:26.063Z,2.40
2023-06-27T22:05:27.594Z,2.20
2023-06-27T22:10:29.100Z,2.60
2023-06-27T22:15:30.592Z,2.47
2023-06-27T22:20:32.122Z,1.90
2023-06-27T22:25:34.794Z,2.00
2023-06-27T22:30:36.320Z,2.10
2023-06-27T22:35:37.856Z,2.00
2023-06-27T22:40:40.163Z,1.90
2023-06-27T22:45:42.028Z,2.42
2023-06-27T22:50:43.805Z,1.65
2023-06-27T22:55:45.564Z,1.80
2023-06-27T23:00:47.115Z,1.98
2023-06-27T23:05:50.182Z,1.85
2023-06-27T23:10:51.922Z,2.17
2023-06-27T23:15:53.668Z,2.00
2023-06-27T23:20:56.803Z,2.00
2023-06-27T23:26:00.154Z,1.90
2023-06-27T23:31:06.281Z,1.80
2023-06-27T23:36:07.953Z,1.90
2023-06-27T23:41:09.476Z,2.05
2023-06-27T23:46:11.216Z,2.00
2023-06-27T23:51:12.772Z,1.90
2023-06-27T23:56:14.334Z,1.65
